createdAt,value
2023-01-05T00:03:40.663Z,74.51
2023-01-05T00:14:23.865Z,74.32
2023-01-05T00:24:48.250Z,74.12
2023-01-05T00:35:13.667Z,74.25
2023-01-05T00:45:38.008Z,74.34
2023-01-05T00:56:02.212Z,74.42
2023-01-05T01:06:27.782Z,74.46
2023-01-05T01:16:51.984Z,74.39
2023-01-05T01:27:16.226Z,74.30
2023-01-05T01:37:40.433Z,74.25
2023-01-05T01:48:05.251Z,74.18
2023-01-05T01:58:31.662Z,73.98
2023-01-05T02:08:56.192Z,73.99
2023-01-05T02:19:46.908Z,73.96
2023-01-05T02:30:35.996Z,74.05
2023-01-05T02:41:07.681Z,73.96
2023-01-05T02:51:37.470Z,74.12
2023-01-05T03:02:06.333Z,73.88
2023-01-05T03:13:07.484Z,73.57
2023-01-05T03:23:49.872Z,73.14
2023-01-05T03:34:40.079Z,72.89
2023-01-05T03:45:05.971Z,72.44
2023-01-05T03:55:30.226Z,72.24
2023-01-05T04:05:54.409Z,72.30
2023-01-05T04:16:19.079Z,72.69
2023-01-05T04:26:43.445Z,73.09
2023-01-05T04:37:07.927Z,73.29
2023-01-05T04:47:32.170Z,73.64
2023-01-05T04:57:56.593Z,73.64
2023-01-05T05:08:20.779Z,73.86
2023-01-05T05:18:44.960Z,74.07
2023-01-05T05:29:09.846Z,74.34
2023-01-05T05:39:34.072Z,74.85
2023-01-05T05:49:58.249Z,75.11
2023-01-05T06:00:22.643Z,75.42
2023-01-05T06:10:48.158Z,75.61
2023-01-05T06:21:12.491Z,75.70
2023-01-05T06:31:36.813Z,75.71
2023-01-05T06:42:01.617Z,75.79
2023-01-05T06:52:26.715Z,76.09
2023-01-05T07:02:51.615Z,76.15
2023-01-05T07:13:16.615Z,76.19
2023-01-05T07:23:41.372Z,75.47
2023-01-05T07:34:06.635Z,75.56
2023-01-05T07:44:31.374Z,75.88
2023-01-05T07:54:57.775Z,76.20
2023-01-05T08:05:22.001Z,76.46
2023-01-05T08:15:51.045Z,76.38
2023-01-05T08:26:17.720Z,76.11
2023-01-05T08:36:42.265Z,76.04
2023-01-05T08:47:06.491Z,75.85
2023-01-05T08:57:31.578Z,75.89
2023-01-05T09:07:55.967Z,75.87
2023-01-05T09:18:20.313Z,76.07
2023-01-05T09:28:45.294Z,75.92
2023-01-05T09:39:10.711Z,75.76
2023-01-05T09:49:35.834Z,75.72
2023-01-05T10:00:06.282Z,75.57
2023-01-05T10:10:43.680Z,75.57
2023-01-05T10:21:15.644Z,75.74
2023-01-05T10:31:46.698Z,75.01
2023-01-05T10:42:22.280Z,73.75
2023-01-05T10:52:47.539Z,72.42
2023-01-05T11:03:15.662Z,71.83
2023-01-05T11:13:40.386Z,71.44
2023-01-05T11:24:25.473Z,71.24
2023-01-05T11:34:51.471Z,71.08
2023-01-05T11:45:21.392Z,70.69
2023-01-05T11:55:45.847Z,69.87
2023-01-05T12:06:22.664Z,68.90
2023-01-05T12:16:49.771Z,67.40
2023-01-05T12:27:22.907Z,66.63
2023-01-05T12:38:03.871Z,66.09
2023-01-05T12:48:33.002Z,65.67
2023-01-05T12:59:07.917Z,65.21
2023-01-05T13:09:34.629Z,64.67
2023-01-05T13:20:05.388Z,64.61
2023-01-05T13:30:34.228Z,65.07
2023-01-05T13:41:16.974Z,65.66
2023-01-05T13:51:52.749Z,65.66
2023-01-05T14:02:31.022Z,65.41
2023-01-05T14:12:55.555Z,65.59
2023-01-05T14:23:56.952Z,65.44
2023-01-05T14:34:23.814Z,65.40
2023-01-05T14:44:51.923Z,65.47
2023-01-05T14:55:37.250Z,64.98
2023-01-05T15:06:08.648Z,65.45
2023-01-05T15:16:49.444Z,65.08
2023-01-05T15:27:48.679Z,64.96
2023-01-05T15:38:21.874Z,64.78
2023-01-05T15:48:48.169Z,65.09
2023-01-05T15:59:23.139Z,65.47
2023-01-05T16:09:48.606Z,65.64
2023-01-05T16:20:17.722Z,65.31
2023-01-05T16:30:43.189Z,65.42
2023-01-05T16:41:23.183Z,65.55
2023-01-05T16:51:47.425Z,65.49
2023-01-05T17:02:45.486Z,65.69
2023-01-05T17:13:13.599Z,66.88
2023-01-05T17:23:52.043Z,67.72
2023-01-05T17:34:16.836Z,67.99
2023-01-05T17:44:41.072Z,67.94
2023-01-05T17:55:06.731Z,67.49
2023-01-05T18:05:31.296Z,66.83
2023-01-05T18:15:56.173Z,66.22
2023-01-05T18:26:20.579Z,64.72
2023-01-05T18:36:44.775Z,64.30
2023-01-05T18:47:09.370Z,63.66
2023-01-05T18:57:33.980Z,63.71
2023-01-05T19:07:58.165Z,63.79
2023-01-05T19:18:22.384Z,63.55
2023-01-05T19:28:46.833Z,63.22
2023-01-05T19:39:14.217Z,63.58
2023-01-05T19:49:38.408Z,63.50
2023-01-05T20:00:03.485Z,63.24
2023-01-05T20:10:27.740Z,63.33
2023-01-05T20:20:51.973Z,63.13
2023-01-05T20:31:18.439Z,63.23
2023-01-05T20:41:48.541Z,64.55
2023-01-05T20:52:14.832Z,66.06
2023-01-05T21:02:39.565Z,67.11
2023-01-05T21:13:30.466Z,67.74
2023-01-05T21:23:49.760Z,67.97
2023-01-05T21:34:14.477Z,68.43
2023-01-05T21:44:39.161Z,68.70
2023-01-05T21:55:26.826Z,69.06
2023-01-05T22:05:51.257Z,69.14
2023-01-05T22:16:15.529Z,69.08
2023-01-05T22:26:39.917Z,69.07
2023-01-05T22:37:04.134Z,68.75
2023-01-05T22:47:28.390Z,67.79
2023-01-05T22:57:52.639Z,67.20
2023-01-05T23:08:16.869Z,67.00
2023-01-05T23:18:42.049Z,66.82
2023-01-05T23:29:06.265Z,66.37
2023-01-05T23:39:30.479Z,66.07
2023-01-05T23:49:54.689Z,65.61
